Time;durP1;ratioP1;P1;durP2;ratioP2;P2;SDS_P1;SDS_P2;PMS_P1;PMS_P2;Temp;Humidity;BMP_temperature;BMP_pressure;BME280_temperature;BME280_humidity;BME280_pressure;Samples;Min_cycle;Max_cycle;Signal;HPM_P1;HPM_P2
2022/07/08 00:02:09;;;;;;;;;;;15.20;99.90;;;;;;5020550;28;20772;-84
2022/07/08 00:04:34;;;;;;;;;;;15.20;99.90;;;;;;5017000;28;20538;-83
2022/07/08 00:07:00;;;;;;;;;;;15.20;99.90;;;;;;5019822;28;20597;-83
2022/07/08 00:09:26;;;;;;;;;;;15.20;99.90;;;;;;5018670;28;19928;-84
2022/07/08 00:11:52;;;;;;;;;;;15.20;99.90;;;;;;5014158;28;19990;-84
2022/07/08 00:14:18;;;;;;;;;;;15.20;99.90;;;;;;5019752;28;20387;-83
2022/07/08 00:16:44;;;;;;;;;;;15.10;99.90;;;;;;5018162;28;20643;-83
2022/07/08 00:19:14;;;;;;;;;;;15.10;99.90;;;;;;5018006;28;19929;-83
2022/07/08 00:21:40;;;;;;;;;;;15.10;99.90;;;;;;5014537;28;19990;-84
2022/07/08 00:24:06;;;;;;;;;;;15.10;99.90;;;;;;5015977;28;20064;-84
2022/07/08 00:26:32;;;;;;;;;;;15.10;99.90;;;;;;5022337;28;19952;-84
2022/07/08 00:28:57;;;;;;;;;;;15.20;99.90;;;;;;5015855;28;19928;-84
2022/07/08 00:31:24;;;;;;;;;;;15.10;99.90;;;;;;5018290;28;19935;-83
2022/07/08 00:33:50;;;;;;;;;;;15.10;99.90;;;;;;5023420;28;20020;-84
2022/07/08 00:36:15;;;;;;;;;;;15.10;99.90;;;;;;5020477;28;19986;-84
2022/07/08 00:38:41;;;;;;;;;;;15.00;99.90;;;;;;5017935;28;20424;-85
2022/07/08 00:41:07;;;;;;;;;;;14.90;99.90;;;;;;5022405;28;20448;-83
2022/07/08 00:43:35;;;;;;;;;;;14.90;99.90;;;;;;5024226;28;19929;-84
2022/07/08 00:46:00;;;;;;;;;;;14.80;99.90;;;;;;4978840;28;19935;-83
2022/07/08 00:48:26;;;;;;;;;;;14.70;99.90;;;;;;5018520;28;19928;-83
2022/07/08 00:50:52;;;;;;;;;;;14.60;99.90;;;;;;5018920;28;20880;-83
2022/07/08 00:53:18;;;;;;;;;;;14.50;99.90;;;;;;5016274;28;19932;-83
2022/07/08 00:55:44;;;;;;;;;;;14.50;99.90;;;;;;5020037;28;20308;-84
2022/07/08 00:58:10;;;;;;;;;;;14.40;99.90;;;;;;4999302;28;19933;-83
2022/07/08 01:00:41;;;;;;;;;;;14.40;99.90;;;;;;5012120;28;19929;-84
2022/07/08 01:03:07;;;;;;;;;;;14.40;99.90;;;;;;5013362;28;19972;-84
2022/07/08 01:05:33;;;;;;;;;;;14.40;99.90;;;;;;5019109;28;20310;-84
2022/07/08 01:07:58;;;;;;;;;;;14.40;99.90;;;;;;5001170;28;19929;-84
2022/07/08 01:10:24;;;;;;;;;;;14.40;99.90;;;;;;4980692;28;19929;-83
2022/07/08 01:12:50;;;;;;;;;;;14.40;99.90;;;;;;5017944;28;19933;-83
2022/07/08 01:15:16;;;;;;;;;;;14.30;99.90;;;;;;5022204;28;19995;-83
2022/07/08 01:17:42;;;;;;;;;;;14.40;99.90;;;;;;5021178;28;20465;-83
2022/07/08 01:20:09;;;;;;;;;;;14.40;99.90;;;;;;5017577;28;19956;-83
2022/07/08 01:22:35;;;;;;;;;;;14.40;99.90;;;;;;5001805;28;20822;-83
2022/07/08 01:25:00;;;;;;;;;;;14.30;99.90;;;;;;5000304;28;19979;-83
2022/07/08 01:27:26;;;;;;;;;;;14.20;99.90;;;;;;5014534;28;19937;-83
2022/07/08 01:29:52;;;;;;;;;;;14.20;99.90;;;;;;5014461;28;19974;-83
2022/07/08 01:32:17;;;;;;;;;;;14.10;99.90;;;;;;5010341;28;19936;-83
2022/07/08 01:34:43;;;;;;;;;;;14.10;99.90;;;;;;5015143;28;19967;-83
2022/07/08 01:37:09;;;;;;;;;;;14.10;99.90;;;;;;5023053;28;20499;-83
2022/07/08 01:39:34;;;;;;;;;;;14.00;99.90;;;;;;5019578;28;19929;-83
2022/07/08 01:42:00;;;;;;;;;;;13.90;99.90;;;;;;5020408;28;20416;-83
2022/07/08 01:44:26;;;;;;;;;;;13.90;99.90;;;;;;4995894;28;19929;-83
2022/07/08 01:46:51;;;;;;;;;;;13.90;99.90;;;;;;5018394;28;19940;-83
2022/07/08 01:49:17;;;;;;;;;;;13.90;99.90;;;;;;5019526;28;19929;-83
2022/07/08 01:51:43;;;;;;;;;;;13.90;99.90;;;;;;5025100;28;19929;-83
2022/07/08 01:54:09;;;;;;;;;;;13.70;99.90;;;;;;5018656;28;19929;-83
2022/07/08 01:56:35;;;;;;;;;;;13.80;99.90;;;;;;5018150;28;20409;-83
2022/07/08 01:59:00;;;;;;;;;;;13.70;99.90;;;;;;5038004;28;19933;-83
2022/07/08 02:01:26;;;;;;;;;;;13.70;99.90;;;;;;5019521;28;19941;-83
2022/07/08 02:03:52;;;;;;;;;;;13.70;99.90;;;;;;5021317;28;20312;-83
2022/07/08 02:06:17;;;;;;;;;;;13.70;99.90;;;;;;5013251;28;20283;-83
2022/07/08 02:08:43;;;;;;;;;;;13.70;99.90;;;;;;5017133;28;19973;-83
2022/07/08 02:13:53;;;;;;;;;;;13.60;99.90;;;;;;5034157;28;20042;-83
2022/07/08 02:16:18;;;;;;;;;;;13.50;99.90;;;;;;5017338;28;20031;-83
2022/07/08 02:18:44;;;;;;;;;;;13.50;99.90;;;;;;5015913;28;19929;-83
2022/07/08 02:21:10;;;;;;;;;;;13.50;99.90;;;;;;5012400;28;19945;-82
2022/07/08 02:23:35;;;;;;;;;;;13.50;99.90;;;;;;5019702;28;20572;-82
2022/07/08 02:26:01;;;;;;;;;;;13.40;99.90;;;;;;5013437;28;19929;-83
2022/07/08 02:28:27;;;;;;;;;;;13.40;99.90;;;;;;5016987;28;19929;-82
2022/07/08 02:30:52;;;;;;;;;;;13.30;99.90;;;;;;5013931;28;19933;-82
2022/07/08 02:33:18;;;;;;;;;;;13.30;99.90;;;;;;4993238;28;19929;-82
2022/07/08 02:35:44;;;;;;;;;;;13.20;99.90;;;;;;5017790;28;19929;-83
2022/07/08 02:38:10;;;;;;;;;;;13.10;99.90;;;;;;5021541;28;19929;-83
2022/07/08 02:40:35;;;;;;;;;;;13.10;99.90;;;;;;5015312;28;20426;-83
2022/07/08 02:43:01;;;;;;;;;;;13.20;99.90;;;;;;5017293;28;19936;-83
2022/07/08 02:45:27;;;;;;;;;;;13.10;99.90;;;;;;4980072;28;19940;-82
2022/07/08 02:47:52;;;;;;;;;;;12.90;99.90;;;;;;5018687;28;20414;-83
2022/07/08 02:50:18;;;;;;;;;;;12.80;99.90;;;;;;5019733;28;20378;-83
2022/07/08 02:52:44;;;;;;;;;;;12.70;99.90;;;;;;5017594;28;19998;-83
2022/07/08 02:55:09;;;;;;;;;;;12.70;99.90;;;;;;5015135;28;20382;-83
2022/07/08 02:57:35;;;;;;;;;;;12.70;99.90;;;;;;4996740;28;19929;-83
2022/07/08 03:00:01;;;;;;;;;;;12.80;99.90;;;;;;5019763;28;19933;-83
2022/07/08 03:02:26;;;;;;;;;;;12.70;99.90;;;;;;5013844;28;19939;-83
2022/07/08 03:04:53;;;;;;;;;;;12.80;99.90;;;;;;5011907;28;20442;-82
2022/07/08 03:07:19;;;;;;;;;;;12.80;99.90;;;;;;5016341;28;19968;-83
2022/07/08 03:09:45;;;;;;;;;;;12.80;99.90;;;;;;5016195;28;19935;-83
2022/07/08 03:12:10;;;;;;;;;;;12.80;99.90;;;;;;5019028;28;20604;-82
2022/07/08 03:14:36;;;;;;;;;;;12.80;99.90;;;;;;5015997;28;20004;-83
2022/07/08 03:17:02;;;;;;;;;;;12.80;99.90;;;;;;5018931;28;19991;-82
2022/07/08 03:19:28;;;;;;;;;;;12.90;99.90;;;;;;5014968;28;19980;-82
2022/07/08 03:21:53;;;;;;;;;;;13.00;99.90;;;;;;5020415;28;20010;-82
2022/07/08 03:24:19;;;;;;;;;;;13.00;99.90;;;;;;5016165;28;19933;-83
2022/07/08 03:26:45;;;;;;;;;;;13.10;99.90;;;;;;5016494;28;19981;-83
2022/07/08 03:29:10;;;;;;;;;;;13.00;99.90;;;;;;4996568;28;19990;-83
2022/07/08 03:31:36;;;;;;;;;;;13.00;99.90;;;;;;5019707;28;19929;-83
2022/07/08 03:34:02;;;;;;;;;;;13.00;99.90;;;;;;5014783;28;20378;-82
2022/07/08 03:36:29;;;;;;;;;;;12.90;99.90;;;;;;5016202;28;19929;-82
2022/07/08 03:38:54;;;;;;;;;;;13.00;99.90;;;;;;5013405;28;19991;-82
2022/07/08 03:41:20;;;;;;;;;;;13.00;99.90;;;;;;5017501;28;19996;-82
2022/07/08 03:43:52;;;;;;;;;;;13.00;99.90;;;;;;5002532;28;19929;-83
2022/07/08 03:46:18;;;;;;;;;;;13.00;99.90;;;;;;5013696;28;19928;-82
2022/07/08 03:48:44;;;;;;;;;;;13.10;99.90;;;;;;4996761;28;19986;-83
2022/07/08 03:51:10;;;;;;;;;;;13.00;99.90;;;;;;5021794;28;19936;-83
2022/07/08 03:53:35;;;;;;;;;;;12.90;99.90;;;;;;5013791;28;19929;-83
2022/07/08 03:56:01;;;;;;;;;;;12.80;99.90;;;;;;4995435;28;19929;-83
2022/07/08 03:58:27;;;;;;;;;;;12.70;99.90;;;;;;5016791;28;19929;-83
2022/07/08 04:00:52;;;;;;;;;;;12.60;99.90;;;;;;4995870;28;20286;-82
2022/07/08 04:03:18;;;;;;;;;;;12.70;99.90;;;;;;5016851;28;19929;-83
2022/07/08 04:05:44;;;;;;;;;;;12.70;99.90;;;;;;4996847;28;19936;-83
2022/07/08 04:08:10;;;;;;;;;;;12.70;99.90;;;;;;5010574;28;19936;-83
2022/07/08 04:10:35;;;;;;;;;;;12.90;99.90;;;;;;4994384;28;19928;-83
2022/07/08 04:13:01;;;;;;;;;;;12.90;99.90;;;;;;4991059;28;20866;-82
2022/07/08 04:15:27;;;;;;;;;;;12.90;99.90;;;;;;5010805;28;20846;-83
2022/07/08 04:17:53;;;;;;;;;;;12.90;99.90;;;;;;5033453;28;20302;-83
2022/07/08 04:20:19;;;;;;;;;;;12.90;99.90;;;;;;5015032;28;19940;-82
2022/07/08 04:22:44;;;;;;;;;;;12.90;99.90;;;;;;4998516;28;20332;-82
2022/07/08 04:25:10;;;;;;;;;;;12.90;99.90;;;;;;5016392;28;19937;-82
2022/07/08 04:27:36;;;;;;;;;;;12.90;99.90;;;;;;5026804;28;19937;-82
2022/07/08 04:30:03;;;;;;;;;;;12.90;99.90;;;;;;5021038;28;19928;-82
2022/07/08 04:32:28;;;;;;;;;;;12.90;99.90;;;;;;5015897;28;20426;-83
2022/07/08 04:34:58;;;;;;;;;;;12.90;99.90;;;;;;5009346;28;19929;-83
2022/07/08 04:37:24;;;;;;;;;;;12.90;99.90;;;;;;5011012;28;19928;-83
2022/07/08 04:39:50;;;;;;;;;;;13.00;99.90;;;;;;5011268;28;19998;-83
2022/07/08 04:42:15;;;;;;;;;;;13.10;99.90;;;;;;5008470;28;19941;-82
2022/07/08 04:44:41;;;;;;;;;;;13.30;99.90;;;;;;5007781;28;20023;-82
2022/07/08 04:47:07;;;;;;;;;;;13.40;99.90;;;;;;5011161;28;19935;-82
2022/07/08 04:49:32;;;;;;;;;;;13.50;99.90;;;;;;5019192;28;20022;-83
2022/07/08 04:51:58;;;;;;;;;;;13.50;99.90;;;;;;5021536;28;19929;-82
2022/07/08 04:54:24;;;;;;;;;;;13.50;99.90;;;;;;4999076;28;19929;-83
2022/07/08 04:56:50;;;;;;;;;;;13.70;99.90;;;;;;4997056;28;20646;-83
2022/07/08 04:59:15;;;;;;;;;;;14.00;99.90;;;;;;5013614;28;19936;-83
2022/07/08 05:01:41;;;;;;;;;;;14.30;99.90;;;;;;5018024;28;19933;-84
2022/07/08 05:04:07;;;;;;;;;;;14.40;99.90;;;;;;5019883;28;20861;-82
2022/07/08 05:06:32;;;;;;;;;;;16.50;99.90;;;;;;5018471;28;19929;-83
2022/07/08 05:08:58;;;;;;;;;;;16.90;99.90;;;;;;5034551;28;19936;-83
2022/07/08 05:11:24;;;;;;;;;;;16.50;99.90;;;;;;5015535;28;19933;-82
2022/07/08 05:13:50;;;;;;;;;;;16.00;99.90;;;;;;4997289;28;19937;-83
2022/07/08 05:16:15;;;;;;;;;;;16.00;99.90;;;;;;5016879;28;19930;-84
2022/07/08 05:18:41;;;;;;;;;;;18.80;99.90;;;;;;5000623;28;20000;-83
2022/07/08 05:21:07;;;;;;;;;;;19.80;99.90;;;;;;5020346;28;19935;-82
2022/07/08 05:23:33;;;;;;;;;;;19.20;99.90;;;;;;5022982;28;19929;-83
2022/07/08 05:25:58;;;;;;;;;;;19.20;99.90;;;;;;5017133;28;19925;-83
2022/07/08 05:28:24;;;;;;;;;;;20.00;99.90;;;;;;5020812;28;20271;-83
2022/07/08 05:30:49;;;;;;;;;;;19.70;99.90;;;;;;5004139;28;20048;-83
2022/07/08 05:33:15;;;;;;;;;;;21.30;99.90;;;;;;5024015;28;19965;-82
2022/07/08 05:35:41;;;;;;;;;;;19.70;99.90;;;;;;5018957;28;19980;-83
2022/07/08 05:38:07;;;;;;;;;;;19.50;99.90;;;;;;5017109;28;19972;-82
2022/07/08 05:40:32;;;;;;;;;;;21.20;99.90;;;;;;5015296;28;19933;-82
2022/07/08 05:42:58;;;;;;;;;;;22.40;99.90;;;;;;5016695;28;19929;-83
2022/07/08 05:45:24;;;;;;;;;;;22.70;99.90;;;;;;5019521;28;20015;-83
2022/07/08 05:47:49;;;;;;;;;;;23.50;99.90;;;;;;5004547;28;19925;-83
2022/07/08 05:50:15;;;;;;;;;;;23.80;99.90;;;;;;5016001;28;19929;-83
2022/07/08 05:52:41;;;;;;;;;;;22.40;99.90;;;;;;5021554;28;19968;-82
2022/07/08 05:55:07;;;;;;;;;;;21.20;99.90;;;;;;5019576;28;19928;-82
2022/07/08 05:57:33;;;;;;;;;;;20.80;99.90;;;;;;5001219;28;19988;-82
2022/07/08 05:59:58;;;;;;;;;;;20.70;99.90;;;;;;5017205;28;19929;-83
2022/07/08 06:02:25;;;;;;;;;;;20.20;99.90;;;;;;5017640;28;19936;-83
2022/07/08 06:04:50;;;;;;;;;;;19.80;99.90;;;;;;5021726;28;20107;-82
2022/07/08 06:07:16;;;;;;;;;;;19.50;99.90;;;;;;5016910;28;21032;-82
2022/07/08 06:09:42;;;;;;;;;;;19.30;99.90;;;;;;5022410;28;19929;-82
2022/07/08 06:12:08;;;;;;;;;;;19.10;99.90;;;;;;5017710;28;19972;-84
2022/07/08 06:14:33;;;;;;;;;;;18.70;99.90;;;;;;4997847;28;19979;-83
2022/07/08 06:16:59;;;;;;;;;;;18.60;99.90;;;;;;5003569;28;20550;-84
2022/07/08 06:19:25;;;;;;;;;;;18.70;99.90;;;;;;5033998;28;19991;-84
2022/07/08 06:21:51;;;;;;;;;;;18.60;99.90;;;;;;5024402;28;20002;-83
2022/07/08 06:24:17;;;;;;;;;;;18.40;99.90;;;;;;5015393;28;19952;-83
2022/07/08 06:26:46;;;;;;;;;;;18.30;99.90;;;;;;5021312;28;20421;-82
2022/07/08 06:29:12;;;;;;;;;;;18.30;99.90;;;;;;5016473;28;19935;-83
2022/07/08 06:31:38;;;;;;;;;;;18.10;99.90;;;;;;5013671;28;19929;-83
2022/07/08 06:34:04;;;;;;;;;;;18.10;99.90;;;;;;5014570;28;19928;-82
2022/07/08 06:36:30;;;;;;;;;;;18.10;99.90;;;;;;5017804;28;19988;-83
2022/07/08 06:38:56;;;;;;;;;;;18.20;99.90;;;;;;5016302;28;20050;-84
2022/07/08 06:41:22;;;;;;;;;;;18.20;99.90;;;;;;5014655;28;19959;-84
2022/07/08 06:43:47;;;;;;;;;;;18.00;99.90;;;;;;5016509;28;19929;-83
2022/07/08 06:46:13;;;;;;;;;;;18.10;99.90;;;;;;4997264;28;19929;-84
2022/07/08 06:48:39;;;;;;;;;;;18.30;99.90;;;;;;5017367;28;19986;-84
2022/07/08 06:51:05;;;;;;;;;;;18.40;99.90;;;;;;5015437;28;20433;-83
2022/07/08 06:56:15;;;;;;;;;;;18.40;99.90;;;;;;5019807;28;19936;-82
2022/07/08 06:58:41;;;;;;;;;;;18.20;99.90;;;;;;5013083;28;19963;-84
2022/07/08 07:01:06;;;;;;;;;;;18.30;99.90;;;;;;4996696;28;20652;-84
2022/07/08 07:03:32;;;;;;;;;;;18.30;99.90;;;;;;5019945;28;19979;-84
2022/07/08 07:05:58;;;;;;;;;;;18.30;99.90;;;;;;5019833;28;19928;-83
2022/07/08 07:08:24;;;;;;;;;;;18.20;99.90;;;;;;5015998;28;20040;-84
2022/07/08 07:10:49;;;;;;;;;;;18.10;99.90;;;;;;5012824;28;19928;-84
2022/07/08 07:13:15;;;;;;;;;;;18.10;99.90;;;;;;5010493;28;20688;-83
2022/07/08 07:15:41;;;;;;;;;;;18.20;99.90;;;;;;4996648;28;19983;-84
2022/07/08 07:18:08;;;;;;;;;;;18.00;99.90;;;;;;5013311;28;19936;-83
2022/07/08 07:20:34;;;;;;;;;;;18.00;99.90;;;;;;5016698;28;19929;-83
2022/07/08 07:23:00;;;;;;;;;;;18.10;99.90;;;;;;4991814;28;19929;-84
2022/07/08 07:25:25;;;;;;;;;;;18.20;99.90;;;;;;5016819;28;19929;-84
2022/07/08 07:27:51;;;;;;;;;;;18.10;99.90;;;;;;5017018;28;20008;-82
2022/07/08 07:30:19;;;;;;;;;;;18.20;99.90;;;;;;5014448;28;20039;-82
2022/07/08 07:32:44;;;;;;;;;;;18.20;99.90;;;;;;5015898;28;19951;-84
2022/07/08 07:35:10;;;;;;;;;;;18.20;99.90;;;;;;5015884;28;20398;-84
2022/07/08 07:37:39;;;;;;;;;;;18.20;99.90;;;;;;5018087;28;19935;-84
2022/07/08 07:40:05;;;;;;;;;;;18.20;99.90;;;;;;5013997;28;19968;-83
2022/07/08 07:42:31;;;;;;;;;;;18.20;99.90;;;;;;5014154;28;19933;-83
2022/07/08 07:44:57;;;;;;;;;;;18.30;99.90;;;;;;5016179;28;20688;-82
2022/07/08 07:47:22;;;;;;;;;;;18.30;99.90;;;;;;5018355;28;20824;-83
2022/07/08 07:49:49;;;;;;;;;;;18.30;99.90;;;;;;5015415;28;19972;-85
2022/07/08 07:52:15;;;;;;;;;;;18.40;99.90;;;;;;4999263;28;19936;-82
2022/07/08 07:54:40;;;;;;;;;;;18.40;99.90;;;;;;5010760;28;19933;-83
2022/07/08 07:57:06;;;;;;;;;;;18.30;99.90;;;;;;4992458;28;20632;-84
2022/07/08 07:59:32;;;;;;;;;;;18.40;99.90;;;;;;4993591;28;20692;-84
2022/07/08 08:02:09;;;;;;;;;;;18.40;99.90;;;;;;5002234;28;19928;-84
2022/07/08 08:04:35;;;;;;;;;;;18.40;99.90;;;;;;5006576;28;19955;-84
2022/07/08 08:07:00;;;;;;;;;;;18.30;99.90;;;;;;4999911;28;19955;-82
2022/07/08 08:09:26;;;;;;;;;;;18.30;99.90;;;;;;5007236;28;20381;-84
2022/07/08 08:11:52;;;;;;;;;;;18.40;99.90;;;;;;5010071;28;20569;-84
2022/07/08 08:14:18;;;;;;;;;;;18.40;99.90;;;;;;4998400;28;19930;-84
2022/07/08 08:16:44;;;;;;;;;;;18.70;99.90;;;;;;5015943;28;19936;-85
2022/07/08 08:19:09;;;;;;;;;;;18.80;99.90;;;;;;5002495;28;19954;-84
2022/07/08 08:21:36;;;;;;;;;;;18.80;99.90;;;;;;4985982;28;19929;-84
2022/07/08 08:24:02;;;;;;;;;;;18.80;99.90;;;;;;4997354;28;19929;-83
2022/07/08 08:26:28;;;;;;;;;;;18.80;99.90;;;;;;5015202;28;19928;-83
2022/07/08 08:28:53;;;;;;;;;;;18.90;99.90;;;;;;5016939;28;19928;-86
2022/07/08 08:31:19;;;;;;;;;;;18.80;99.90;;;;;;5000466;28;19979;-84
2022/07/08 08:33:47;;;;;;;;;;;18.70;99.90;;;;;;5017207;28;20399;-83
2022/07/08 08:36:13;;;;;;;;;;;18.80;99.90;;;;;;5018493;28;21069;-83
2022/07/08 08:38:38;;;;;;;;;;;18.80;99.90;;;;;;5015310;28;19972;-83
2022/07/08 08:41:04;;;;;;;;;;;18.70;99.90;;;;;;5016346;28;20416;-84
2022/07/08 08:43:30;;;;;;;;;;;18.60;99.90;;;;;;5032063;28;19929;-83
2022/07/08 08:45:55;;;;;;;;;;;18.60;99.90;;;;;;5025453;28;19929;-86
2022/07/08 08:48:24;;;;;;;;;;;18.80;99.90;;;;;;5013524;28;19933;-84
2022/07/08 08:50:55;;;;;;;;;;;18.80;99.90;;;;;;5018753;28;19943;-83
2022/07/08 08:53:40;;;;;;;;;;;18.80;99.90;;;;;;5005273;28;19933;-85
2022/07/08 08:56:10;;;;;;;;;;;18.90;99.90;;;;;;5020031;28;20398;-84
2022/07/08 08:58:39;;;;;;;;;;;18.80;99.90;;;;;;5016112;28;19933;-83
2022/07/08 09:01:08;;;;;;;;;;;18.90;99.90;;;;;;5013847;28;19940;-86
2022/07/08 09:03:35;;;;;;;;;;;19.10;99.90;;;;;;5014475;28;19935;-84
2022/07/08 09:06:01;;;;;;;;;;;19.00;99.90;;;;;;5017165;28;19936;-83
2022/07/08 09:08:26;;;;;;;;;;;19.10;99.90;;;;;;5018037;28;19937;-84
2022/07/08 09:10:52;;;;;;;;;;;19.30;99.90;;;;;;5015217;28;19990;-83
2022/07/08 09:13:23;;;;;;;;;;;19.60;99.90;;;;;;5004832;28;19991;-84
2022/07/08 09:15:54;;;;;;;;;;;19.60;99.90;;;;;;5016918;28;19925;-84
2022/07/08 09:18:21;;;;;;;;;;;20.10;99.90;;;;;;5019796;28;19974;-83
2022/07/08 09:20:51;;;;;;;;;;;20.50;99.90;;;;;;5010621;28;19935;-84
2022/07/08 09:23:21;;;;;;;;;;;20.80;99.90;;;;;;5010071;28;19940;-87
2022/07/08 09:25:56;;;;;;;;;;;20.80;99.90;;;;;;4984005;28;19936;-84
2022/07/08 09:28:30;;;;;;;;;;;20.90;99.90;;;;;;5014959;28;20352;-84
2022/07/08 09:30:56;;;;;;;;;;;20.90;99.90;;;;;;5025445;28;19982;-83
2022/07/08 09:33:23;;;;;;;;;;;20.90;99.90;;;;;;5014687;28;20334;-82
2022/07/08 09:35:51;;;;;;;;;;;20.70;99.90;;;;;;5014888;28;20377;-83
2022/07/08 09:38:20;;;;;;;;;;;20.70;99.90;;;;;;4997517;28;20467;-83
2022/07/08 09:40:56;;;;;;;;;;;21.00;99.90;;;;;;5005776;28;20390;-85
2022/07/08 09:43:22;;;;;;;;;;;21.20;99.90;;;;;;5004384;28;19999;-85
2022/07/08 09:45:47;;;;;;;;;;;21.00;99.90;;;;;;5002631;28;19944;-86
2022/07/08 09:48:13;;;;;;;;;;;21.10;99.90;;;;;;4994394;28;20295;-84
2022/07/08 09:50:43;;;;;;;;;;;21.10;99.90;;;;;;4999148;28;20322;-83
2022/07/08 09:53:12;;;;;;;;;;;21.20;99.90;;;;;;5000283;28;20402;-85
2022/07/08 09:55:39;;;;;;;;;;;21.20;99.90;;;;;;5000331;28;20398;-84
2022/07/08 09:58:04;;;;;;;;;;;20.70;99.90;;;;;;5003501;28;19936;-83
2022/07/08 10:00:30;;;;;;;;;;;20.80;99.90;;;;;;5009410;28;19928;-84
2022/07/08 10:02:56;;;;;;;;;;;20.70;99.90;;;;;;5006797;28;20037;-85
2022/07/08 10:05:22;;;;;;;;;;;20.60;99.90;;;;;;4990339;28;19929;-83
2022/07/08 10:07:47;;;;;;;;;;;20.50;99.90;;;;;;5007763;28;19929;-84
2022/07/08 10:10:13;;;;;;;;;;;20.50;99.90;;;;;;5004488;28;19991;-86
2022/07/08 10:12:39;;;;;;;;;;;20.70;99.90;;;;;;5006678;28;20008;-84
2022/07/08 10:15:06;;;;;;;;;;;20.60;99.90;;;;;;5018726;28;19955;-86
2022/07/08 10:17:35;;;;;;;;;;;20.60;99.90;;;;;;5007198;28;20390;-87
2022/07/08 10:20:01;;;;;;;;;;;20.50;99.90;;;;;;5007874;28;19939;-84
2022/07/08 10:22:27;;;;;;;;;;;20.70;99.90;;;;;;5006673;28;19929;-83
2022/07/08 10:24:53;;;;;;;;;;;20.60;99.90;;;;;;5011065;28;20391;-85
2022/07/08 10:27:23;;;;;;;;;;;20.70;99.90;;;;;;4990022;28;20032;-85
2022/07/08 10:29:49;;;;;;;;;;;20.80;99.90;;;;;;5007591;28;20457;-84
2022/07/08 10:32:21;;;;;;;;;;;20.90;99.90;;;;;;5004974;28;19929;-87
2022/07/08 10:35:05;;;;;;;;;;;20.90;99.90;;;;;;4983369;28;20553;-84
2022/07/08 10:37:47;;;;;;;;;;;20.90;99.90;;;;;;5005407;28;19937;-84
2022/07/08 10:40:13;;;;;;;;;;;20.90;99.90;;;;;;5005539;28;19928;-84
2022/07/08 10:42:43;;;;;;;;;;;21.00;99.90;;;;;;4986218;28;20412;-82
2022/07/08 10:45:15;;;;;;;;;;;21.10;99.90;;;;;;5000870;28;19929;-84
2022/07/08 10:47:40;;;;;;;;;;;20.90;99.90;;;;;;5000665;28;19939;-84
2022/07/08 10:50:07;;;;;;;;;;;21.00;99.90;;;;;;4985856;28;19929;-83
2022/07/08 10:52:38;;;;;;;;;;;21.00;99.90;;;;;;5001164;28;20733;-84
2022/07/08 10:55:11;;;;;;;;;;;21.00;99.90;;;;;;5002983;28;19972;-84
2022/07/08 10:57:36;;;;;;;;;;;21.10;99.90;;;;;;5002226;28;19935;-85
2022/07/08 11:00:05;;;;;;;;;;;21.30;99.90;;;;;;4992082;28;19929;-84
2022/07/08 11:02:31;;;;;;;;;;;21.50;99.90;;;;;;4990536;28;19979;-85
2022/07/08 11:04:57;;;;;;;;;;;21.60;99.90;;;;;;5007232;28;20304;-84
2022/07/08 11:07:27;;;;;;;;;;;21.80;99.90;;;;;;5005745;28;20003;-83
2022/07/08 11:10:03;;;;;;;;;;;21.70;99.90;;;;;;5008554;28;19935;-87
2022/07/08 11:12:30;;;;;;;;;;;21.90;99.90;;;;;;4974863;28;19935;-84
2022/07/08 11:14:57;;;;;;;;;;;22.00;99.90;;;;;;5006288;28;19933;-85
2022/07/08 11:17:23;;;;;;;;;;;22.00;99.90;;;;;;5000974;28;20236;-85
2022/07/08 11:19:50;;;;;;;;;;;21.90;99.90;;;;;;5003406;28;19976;-84
2022/07/08 11:22:16;;;;;;;;;;;21.90;99.90;;;;;;5005387;28;19929;-85
2022/07/08 11:24:45;;;;;;;;;;;22.10;99.90;;;;;;4989996;28;19933;-84
2022/07/08 11:27:11;;;;;;;;;;;22.30;99.90;;;;;;5003982;28;20537;-84
2022/07/08 11:29:37;;;;;;;;;;;22.70;99.90;;;;;;4987480;28;19935;-85
2022/07/08 11:32:04;;;;;;;;;;;22.60;99.90;;;;;;5001941;28;20857;-85
2022/07/08 11:34:29;;;;;;;;;;;22.70;99.90;;;;;;5007372;28;19952;-85
2022/07/08 11:36:56;;;;;;;;;;;22.70;99.90;;;;;;5006617;28;20712;-84
2022/07/08 11:39:22;;;;;;;;;;;22.60;99.90;;;;;;5007748;28;20900;-85
2022/07/08 11:41:48;;;;;;;;;;;22.50;99.90;;;;;;5008606;28;19933;-86
2022/07/08 11:44:18;;;;;;;;;;;22.30;99.90;;;;;;5009720;28;19929;-86
2022/07/08 11:46:48;;;;;;;;;;;22.30;99.90;;;;;;5005105;28;19924;-84
2022/07/08 11:49:14;;;;;;;;;;;22.50;99.90;;;;;;5003851;28;19929;-85
2022/07/08 11:51:44;;;;;;;;;;;22.30;99.90;;;;;;5022034;28;20288;-83
2022/07/08 11:54:10;;;;;;;;;;;22.30;99.90;;;;;;4994565;28;20003;-85
2022/07/08 11:56:35;;;;;;;;;;;22.30;99.90;;;;;;5023673;28;19994;-85
2022/07/08 11:59:01;;;;;;;;;;;22.60;99.90;;;;;;4990575;28;19933;-85
2022/07/08 12:01:26;;;;;;;;;;;22.90;99.90;;;;;;5012506;28;19929;-86
2022/07/08 12:03:52;;;;;;;;;;;23.30;99.90;;;;;;4998813;28;20454;-85
2022/07/08 12:06:22;;;;;;;;;;;23.50;99.90;;;;;;4998426;28;19929;-86
2022/07/08 12:08:47;;;;;;;;;;;23.50;99.90;;;;;;4997603;28;20011;-87
2022/07/08 12:11:14;;;;;;;;;;;23.40;99.90;;;;;;5019336;28;19937;-86
2022/07/08 12:13:41;;;;;;;;;;;23.60;99.90;;;;;;5018669;28;19929;-86
2022/07/08 12:16:07;;;;;;;;;;;23.80;99.90;;;;;;5015672;28;19951;-82
2022/07/08 12:18:34;;;;;;;;;;;24.00;99.90;;;;;;5018364;28;20370;-82
2022/07/08 12:21:15;;;;;;;;;;;24.30;99.90;;;;;;5018535;28;19940;-84
2022/07/08 12:23:45;;;;;;;;;;;24.10;99.90;;;;;;5019266;28;19932;-85
2022/07/08 12:26:10;;;;;;;;;;;24.40;99.90;;;;;;5018621;28;19940;-86
2022/07/08 12:28:36;;;;;;;;;;;24.50;99.90;;;;;;5018570;28;19929;-85
2022/07/08 12:31:02;;;;;;;;;;;24.10;99.90;;;;;;5017730;28;19933;-85
2022/07/08 12:33:27;;;;;;;;;;;24.00;99.90;;;;;;5016265;28;19936;-86
2022/07/08 12:35:53;;;;;;;;;;;24.10;99.90;;;;;;5019598;28;19969;-85
2022/07/08 12:38:22;;;;;;;;;;;24.20;99.90;;;;;;5001450;28;20313;-83
2022/07/08 12:40:48;;;;;;;;;;;24.20;99.90;;;;;;5018730;28;19931;-86
2022/07/08 12:43:15;;;;;;;;;;;24.10;99.90;;;;;;5020296;28;19974;-85
2022/07/08 12:45:40;;;;;;;;;;;24.80;99.90;;;;;;5015612;28;19987;-85
2022/07/08 12:48:06;;;;;;;;;;;24.70;99.90;;;;;;5022013;28;20896;-86
2022/07/08 12:50:33;;;;;;;;;;;24.30;99.90;;;;;;5022026;28;19929;-86
2022/07/08 12:52:59;;;;;;;;;;;25.00;99.90;;;;;;5018951;28;19929;-87
2022/07/08 12:55:25;;;;;;;;;;;24.40;99.90;;;;;;5021295;28;20298;-87
2022/07/08 12:57:50;;;;;;;;;;;24.20;99.90;;;;;;5001068;28;20140;-88
2022/07/08 13:00:19;;;;;;;;;;;24.20;99.90;;;;;;5004743;28;20002;-87
2022/07/08 13:02:45;;;;;;;;;;;24.30;99.90;;;;;;5001099;28;19933;-86
2022/07/08 13:05:11;;;;;;;;;;;24.50;99.90;;;;;;5016441;28;19940;-84
2022/07/08 13:07:37;;;;;;;;;;;24.80;99.90;;;;;;5017945;28;20194;-86
2022/07/08 13:10:03;;;;;;;;;;;24.20;99.90;;;;;;5018426;28;19935;-85
2022/07/08 13:12:29;;;;;;;;;;;24.00;99.90;;;;;;5019064;28;19933;-85
2022/07/08 13:14:54;;;;;;;;;;;24.10;99.90;;;;;;5010912;28;19935;-85
2022/07/08 13:17:20;;;;;;;;;;;23.90;99.90;;;;;;5012683;28;19933;-86
2022/07/08 13:19:46;;;;;;;;;;;23.90;99.90;;;;;;5017440;28;20389;-87
2022/07/08 13:22:12;;;;;;;;;;;24.00;99.90;;;;;;5008834;28;19933;-85
2022/07/08 13:24:37;;;;;;;;;;;24.40;99.90;;;;;;5018396;28;19936;-87
2022/07/08 13:27:03;;;;;;;;;;;24.20;99.90;;;;;;4991483;28;19928;-86
2022/07/08 13:29:29;;;;;;;;;;;24.00;99.90;;;;;;5016371;28;20295;-86
2022/07/08 13:31:55;;;;;;;;;;;23.70;99.90;;;;;;5018923;28;19925;-87
2022/07/08 13:34:22;;;;;;;;;;;23.60;99.90;;;;;;5019035;28;20428;-85
2022/07/08 13:36:48;;;;;;;;;;;23.50;99.90;;;;;;5002146;28;20027;-85
2022/07/08 13:39:14;;;;;;;;;;;23.70;99.90;;;;;;5020843;28;20283;-89
2022/07/08 13:41:39;;;;;;;;;;;23.70;99.90;;;;;;4992874;28;20002;-86
2022/07/08 13:44:05;;;;;;;;;;;23.50;99.90;;;;;;4994086;28;20389;-86
2022/07/08 13:46:31;;;;;;;;;;;23.20;99.90;;;;;;5012546;28;19977;-85
2022/07/08 13:48:57;;;;;;;;;;;23.20;99.90;;;;;;5014077;28;19936;-85
2022/07/08 13:51:23;;;;;;;;;;;23.20;99.90;;;;;;5014612;28;19932;-84
2022/07/08 13:53:48;;;;;;;;;;;23.30;99.90;;;;;;4984112;28;19955;-84
2022/07/08 13:56:14;;;;;;;;;;;23.30;99.90;;;;;;5014731;28;19988;-86
2022/07/08 13:58:40;;;;;;;;;;;23.40;99.90;;;;;;5014568;28;19936;-87
2022/07/08 14:01:06;;;;;;;;;;;23.40;99.90;;;;;;4996021;28;20063;-85
2022/07/08 14:03:31;;;;;;;;;;;23.60;99.90;;;;;;5009996;28;20322;-85
2022/07/08 14:05:57;;;;;;;;;;;23.70;99.90;;;;;;5009292;28;19979;-87
2022/07/08 14:08:23;;;;;;;;;;;23.50;99.90;;;;;;4981953;28;19960;-85
2022/07/08 14:10:49;;;;;;;;;;;23.60;99.90;;;;;;5018582;28;19928;-81
2022/07/08 14:13:14;;;;;;;;;;;23.60;99.90;;;;;;5006906;28;20015;-82
2022/07/08 14:15:40;;;;;;;;;;;23.50;99.90;;;;;;5008633;28;19993;-84
2022/07/08 14:18:06;;;;;;;;;;;23.40;99.90;;;;;;5012373;28;20396;-87